Time;durP1;ratioP1;P1;durP2;ratioP2;P2;SDS_P1;SDS_P2;PMS_P1;PMS_P2;Temp;Humidity;BMP_temperature;BMP_pressure;BME280_temperature;BME280_humidity;BME280_pressure;Samples;Min_cycle;Max_cycle;Signal;HPM_P1;HPM_P2
2022/08/16 00:00:56;;;;;;;17.60;12.77;;;23.50;99.90;;;;;;4900803;29;20031;-90
2022/08/16 00:03:22;;;;;;;17.60;11.60;;;23.60;99.90;;;;;;4903609;29;20040;-93
2022/08/16 00:05:49;;;;;;;16.20;10.90;;;23.60;99.90;;;;;;4900820;29;20032;-91
2022/08/16 00:08:17;;;;;;;17.70;11.70;;;23.50;99.90;;;;;;4889706;29;20040;-92
2022/08/16 00:10:45;;;;;;;16.58;10.70;;;23.50;99.90;;;;;;4884776;29;20046;-92
2022/08/16 00:13:12;;;;;;;19.00;12.80;;;23.40;99.90;;;;;;4900665;29;20033;-90
2022/08/16 00:15:42;;;;;;;14.13;12.32;;;23.50;99.90;;;;;;4903589;29;20039;-92
2022/08/16 00:18:10;;;;;;;17.48;13.07;;;23.40;99.90;;;;;;4892606;29;20052;-92
2022/08/16 00:20:39;;;;;;;13.35;10.90;;;23.40;99.90;;;;;;4878200;29;20039;-93
2022/08/16 00:23:06;;;;;;;15.35;12.23;;;23.40;99.90;;;;;;4895575;29;20029;-93
2022/08/16 00:25:34;;;;;;;19.70;11.70;;;23.40;99.90;;;;;;4890520;29;20075;-93
2022/08/16 00:28:07;;;;;;;15.15;11.60;;;23.40;99.90;;;;;;4897685;29;20052;-93
2022/08/16 00:30:34;;;;;;;18.10;12.20;;;23.40;99.90;;;;;;4894559;29;20127;-93
2022/08/16 00:33:05;;;;;;;16.15;11.45;;;23.40;99.90;;;;;;4884738;29;20024;-93
2022/08/16 00:35:35;;;;;;;19.05;12.10;;;23.50;99.90;;;;;;4884311;29;20056;-91
2022/08/16 00:38:04;;;;;;;18.75;12.45;;;23.50;99.90;;;;;;4900128;29;20043;-93
2022/08/16 00:40:47;;;;;;;19.50;13.13;;;23.50;99.90;;;;;;4897211;29;20486;-92
2022/08/16 00:43:35;;;;;;;22.33;12.77;;;23.50;99.90;;;;;;4850509;29;20486;-92
2022/08/16 00:46:32;;;;;;;15.27;11.45;;;23.50;99.90;;;;;;4851086;29;20036;-92
2022/08/16 00:49:00;;;;;;;17.50;12.95;;;23.60;99.90;;;;;;4851955;29;20032;-91
2022/08/16 00:51:27;;;;;;;22.00;13.68;;;23.60;99.90;;;;;;4878062;29;20036;-91
2022/08/16 00:53:54;;;;;;;21.27;13.77;;;23.60;99.90;;;;;;4885082;29;20033;-92
2022/08/16 00:56:29;;;;;;;23.45;15.55;;;23.60;99.90;;;;;;4868513;29;20025;-92
2022/08/16 00:58:56;;;;;;;21.00;15.40;;;23.70;99.90;;;;;;4884120;29;20050;-92
2022/08/16 01:01:22;;;;;;;24.25;17.05;;;23.70;99.90;;;;;;4876776;29;20526;-92
2022/08/16 01:03:52;;;;;;;24.88;18.33;;;23.60;99.90;;;;;;4902537;29;20188;-92
2022/08/16 01:06:21;;;;;;;34.03;20.00;;;23.60;99.90;;;;;;4902841;29;20028;-93
2022/08/16 01:08:51;;;;;;;38.22;23.85;;;23.50;99.90;;;;;;4884491;29;20020;-92
2022/08/16 01:11:20;;;;;;;38.97;23.90;;;23.50;99.90;;;;;;4883943;29;20486;-92
2022/08/16 01:13:51;;;;;;;43.55;26.45;;;23.60;99.90;;;;;;4880858;29;20041;-93
2022/08/16 01:16:24;;;;;;;48.70;28.50;;;23.60;99.90;;;;;;4864309;29;20557;-92
2022/08/16 01:19:29;;;;;;;43.10;25.55;;;23.60;99.90;;;;;;4879892;29;20037;-94
2022/08/16 01:22:23;;;;;;;46.33;29.23;;;23.70;99.90;;;;;;4860480;29;20037;-92
2022/08/16 01:25:02;;;;;;;41.03;25.95;;;23.70;99.90;;;;;;4864476;29;20037;-93
2022/08/16 01:27:54;;;;;;;51.03;30.13;;;23.70;99.90;;;;;;4880167;29;20116;-92
2022/08/16 01:30:34;;;;;;;50.53;31.13;;;23.80;99.90;;;;;;4882520;29;20052;-91
2022/08/16 01:33:04;;;;;;;41.35;27.17;;;23.80;99.90;;;;;;4881225;29;20120;-93
2022/08/16 01:35:57;;;;;;;47.55;28.58;;;23.70;99.90;;;;;;4879968;29;20037;-92
2022/08/16 01:38:35;;;;;;;48.15;28.90;;;23.60;99.90;;;;;;4846096;29;20037;-92
2022/08/16 01:41:09;;;;;;;44.90;27.88;;;23.60;99.90;;;;;;4864044;29;20037;-93
2022/08/16 01:43:39;;;;;;;52.30;29.77;;;23.50;99.90;;;;;;4879358;29;20541;-93
2022/08/16 01:46:23;;;;;;;45.40;28.25;;;23.60;99.90;;;;;;4863557;29;20148;-92
2022/08/16 01:49:05;;;;;;;43.80;26.77;;;23.60;99.90;;;;;;4864096;29;20036;-93
2022/08/16 01:51:32;;;;;;;43.72;26.23;;;23.60;99.90;;;;;;4879366;29;20048;-93
2022/08/16 01:54:00;;;;;;;43.03;25.88;;;23.50;99.90;;;;;;4887661;29;20032;-94
2022/08/16 01:56:29;;;;;;;34.08;21.80;;;23.60;99.90;;;;;;4883080;29;20040;-93
2022/08/16 01:59:00;;;;;;;37.03;24.50;;;23.70;99.90;;;;;;4892172;29;20065;-93
2022/08/16 02:01:29;;;;;;;36.42;22.00;;;23.70;99.90;;;;;;4901870;29;20032;-92
2022/08/16 02:03:57;;;;;;;29.02;20.88;;;23.70;99.90;;;;;;4850236;29;20029;-91
2022/08/16 02:06:24;;;;;;;28.38;19.67;;;23.80;99.90;;;;;;4849450;29;20029;-93
2022/08/16 02:08:54;;;;;;;29.08;18.35;;;23.80;99.90;;;;;;4848280;29;20061;-92
2022/08/16 02:11:23;;;;;;;28.20;18.45;;;23.90;99.90;;;;;;4849132;29;20119;-91
2022/08/16 02:13:51;;;;;;;25.13;16.52;;;24.00;99.90;;;;;;4880306;29;20035;-92
2022/08/16 02:16:19;;;;;;;34.08;19.80;;;24.00;99.90;;;;;;4889559;29;20056;-91
2022/08/16 02:18:47;;;;;;;27.15;18.25;;;24.00;99.90;;;;;;4898303;29;20112;-93
2022/08/16 02:21:15;;;;;;;26.98;16.70;;;24.00;99.90;;;;;;4901552;29;20034;-93
2022/08/16 02:23:44;;;;;;;26.45;16.08;;;24.00;99.90;;;;;;4901136;29;20468;-91
2022/08/16 02:26:11;;;;;;;21.70;16.15;;;24.00;99.90;;;;;;4901309;29;20059;-92
2022/08/16 02:28:38;;;;;;;22.83;15.48;;;24.00;99.90;;;;;;4898550;29;20071;-91
2022/08/16 02:31:09;;;;;;;18.98;13.57;;;24.10;99.90;;;;;;4891242;29;20036;-92
2022/08/16 02:33:37;;;;;;;19.38;13.40;;;24.10;99.90;;;;;;4884068;29;20506;-93
2022/08/16 02:36:05;;;;;;;18.80;13.65;;;24.10;99.90;;;;;;4849607;29;20037;-95
2022/08/16 02:38:34;;;;;;;17.33;14.23;;;24.10;99.90;;;;;;4885776;29;20052;-92
2022/08/16 02:41:04;;;;;;;20.25;13.40;;;24.10;99.90;;;;;;4894229;29;20032;-92
2022/08/16 02:43:33;;;;;;;19.95;13.95;;;24.10;99.90;;;;;;4882331;29;20044;-92
2022/08/16 02:46:04;;;;;;;17.05;13.70;;;24.20;99.90;;;;;;4876993;29;20052;-91
2022/08/16 02:48:31;;;;;;;18.33;13.23;;;24.20;99.90;;;;;;4895786;29;20032;-95
2022/08/16 02:51:03;;;;;;;21.20;13.40;;;24.20;99.90;;;;;;4888015;29;20041;-92
2022/08/16 02:53:31;;;;;;;15.63;13.60;;;24.20;99.90;;;;;;4897798;29;20029;-91
2022/08/16 02:55:58;;;;;;;23.00;14.68;;;24.20;99.90;;;;;;4882350;29;20025;-92
2022/08/16 02:58:25;;;;;;;22.92;15.05;;;24.20;99.90;;;;;;4884525;29;20056;-93
2022/08/16 03:00:54;;;;;;;19.45;13.57;;;24.20;99.90;;;;;;4900805;29;20035;-92
2022/08/16 03:03:23;;;;;;;19.88;13.73;;;24.20;99.90;;;;;;4901152;29;20059;-93
2022/08/16 03:05:54;;;;;;;19.70;14.52;;;24.20;99.90;;;;;;4901106;29;20063;-93
2022/08/16 03:08:23;;;;;;;19.65;14.10;;;24.20;99.90;;;;;;4894981;29;20025;-92
2022/08/16 03:10:51;;;;;;;14.80;12.60;;;24.20;99.90;;;;;;4898275;29;20040;-92
2022/08/16 03:13:26;;;;;;;17.58;12.77;;;24.10;99.90;;;;;;4888406;29;20021;-94
2022/08/16 03:15:59;;;;;;;18.77;13.13;;;24.10;99.90;;;;;;5257901;23;20135;-92
2022/08/16 03:18:32;;;;;;;18.75;13.40;;;24.10;99.90;;;;;;4885097;29;20062;-93
2022/08/16 03:21:43;;;;;;;20.73;14.05;;;24.10;99.90;;;;;;4876544;29;20040;-92
2022/08/16 03:27:19;;;;;;;18.08;13.40;;;24.00;99.90;;;;;;5075101;23;20052;-93
2022/08/16 03:41:17;;;;;;;24.88;18.65;;;24.10;99.90;;;;;;5421972;23;20061;-92
2022/08/16 03:44:46;;;;;;;;;;;;;;;;;;;;;
2022/08/16 04:56:35;;;;;;;;;;;;;;;;;;;;;
2022/08/16 05:03:20;;;;;;;18.50;14.02;;;25.30;99.90;;;;;;4823717;29;20042;-93
2022/08/16 05:58:39;;;;;;;10.32;8.73;;;28.10;99.90;;;;;;4914749;29;20547;-93
2022/08/16 06:01:09;;;;;;;10.45;8.80;;;28.40;99.90;;;;;;4882418;29;20464;-92
2022/08/16 06:03:49;;;;;;;11.02;9.93;;;29.00;99.90;;;;;;4886032;29;20083;-93
2022/08/16 06:06:50;;;;;;;15.65;11.75;;;29.20;99.90;;;;;;4842359;29;20102;-92
2022/08/16 06:10:19;;;;;;;13.45;12.02;;;29.40;99.90;;;;;;4778193;30;20046;-92
2022/08/16 06:13:10;;;;;;;15.13;13.48;;;29.50;99.90;;;;;;4780318;30;20047;-92
2022/08/16 06:16:14;;;;;;;18.77;14.18;;;30.50;99.90;;;;;;4779321;30;20040;-92
2022/08/16 06:20:18;;;;;;;15.10;13.73;;;31.60;99.90;;;;;;4689300;30;20057;-92
2022/08/16 06:23:27;;;;;;;17.80;15.05;;;32.70;99.90;;;;;;4638282;30;20038;-94
2022/08/16 06:26:21;;;;;;;16.50;15.05;;;33.50;99.90;;;;;;4621737;31;20055;-93
2022/08/16 08:50:28;;;;;;;15.13;14.00;;;30.90;99.90;;;;;;5021004;23;20506;-92
2022/08/16 08:52:55;;;;;;;16.13;14.48;;;30.50;99.90;;;;;;4875266;29;20039;-93
2022/08/16 08:55:22;;;;;;;14.90;13.50;;;30.60;99.90;;;;;;4873717;29;20028;-93
2022/08/16 08:57:51;;;;;;;14.57;13.25;;;30.70;99.90;;;;;;4878691;29;20036;-92
2022/08/16 09:01:14;;;;;;;14.98;13.43;;;30.90;99.90;;;;;;4903195;29;20130;-92
2022/08/16 09:04:07;;;;;;;14.05;12.82;;;31.10;99.90;;;;;;4890726;29;20036;-94
2022/08/16 09:06:42;;;;;;;14.23;12.88;;;31.10;99.90;;;;;;4887854;29;20128;-92
2022/08/16 09:09:15;;;;;;;15.18;13.70;;;30.90;99.90;;;;;;4885926;29;20041;-93
2022/08/16 09:11:55;;;;;;;14.85;13.45;;;30.70;99.90;;;;;;4885334;29;20040;-92
2022/08/16 09:14:22;;;;;;;17.60;13.80;;;30.80;99.90;;;;;;4885956;29;20108;-92
2022/08/16 09:17:26;;;;;;;15.85;14.65;;;30.50;99.90;;;;;;4888946;29;20036;-93
2022/08/16 09:23:17;;;;;;;;;;;;;;;;;;;;;
2022/08/16 09:25:50;;;;;;;15.90;14.73;;;30.00;99.90;;;;;;4872643;29;20028;-92
2022/08/16 09:28:18;;;;;;;15.98;14.38;;;29.90;99.90;;;;;;4851828;29;20037;-93
2022/08/16 09:30:49;;;;;;;17.38;14.75;;;30.10;99.90;;;;;;4861890;29;20045;-92
2022/08/16 09:33:22;;;;;;;16.23;15.02;;;29.80;99.90;;;;;;4850896;29;20029;-92
2022/08/16 09:36:06;;;;;;;15.63;14.13;;;29.60;99.90;;;;;;4869286;24;20056;-92
2022/08/16 09:39:21;;;;;;;15.68;14.45;;;29.50;99.90;;;;;;4871627;29;20124;-93
2022/08/16 09:42:22;;;;;;;16.05;14.63;;;29.80;99.90;;;;;;4851902;29;20037;-92
2022/08/16 09:45:01;;;;;;;14.80;13.25;;;30.20;99.90;;;;;;4865418;29;20033;-92
2022/08/16 09:47:31;;;;;;;16.17;14.45;;;30.40;99.90;;;;;;4850618;29;20096;-92
2022/08/16 09:50:30;;;;;;;14.45;13.48;;;30.10;99.90;;;;;;4850201;29;20124;-92
2022/08/16 09:53:04;;;;;;;14.93;13.60;;;30.00;99.90;;;;;;4851010;29;20053;-92
2022/08/16 09:55:31;;;;;;;14.93;13.35;;;30.10;99.90;;;;;;4854111;29;20044;-91
2022/08/16 09:58:01;;;;;;;15.07;13.65;;;30.20;99.90;;;;;;4853429;29;20033;-94
2022/08/16 10:00:29;;;;;;;16.10;14.35;;;30.30;99.90;;;;;;4859129;29;20452;-91
2022/08/16 10:02:57;;;;;;;16.40;13.98;;;30.40;99.90;;;;;;4852717;29;20041;-93
2022/08/16 10:05:26;;;;;;;13.75;12.73;;;30.50;99.90;;;;;;4863797;29;20029;-91
2022/08/16 10:07:55;;;;;;;14.75;13.30;;;30.70;99.90;;;;;;4856997;29;20036;-92
2022/08/16 10:10:35;;;;;;;17.00;13.98;;;30.70;99.90;;;;;;4859186;29;20048;-94
2022/08/16 10:13:17;;;;;;;14.95;13.55;;;30.50;99.90;;;;;;4858245;29;20029;-91
2022/08/16 10:15:58;;;;;;;15.15;13.88;;;30.70;99.90;;;;;;4859377;29;20407;-92
2022/08/16 10:18:33;;;;;;;14.32;13.02;;;31.10;99.90;;;;;;4858587;29;20033;-93
2022/08/16 10:20:59;;;;;;;14.50;12.98;;;31.60;99.90;;;;;;4854924;29;20037;-92
2022/08/16 10:23:28;;;;;;;14.55;13.30;;;31.90;99.90;;;;;;4854945;29;20029;-91
2022/08/16 10:25:55;;;;;;;14.70;13.30;;;32.30;99.90;;;;;;4857892;29;20041;-93
2022/08/16 10:28:45;;;;;;;14.65;13.52;;;32.40;99.90;;;;;;4854434;29;20025;-92
2022/08/16 10:31:37;;;;;;;15.00;13.47;;;32.50;99.90;;;;;;4855296;29;20076;-93
2022/08/16 10:34:10;;;;;;;15.30;14.13;;;32.80;99.90;;;;;;4853385;29;20028;-94
2022/08/16 10:36:48;;;;;;;15.17;13.80;;;32.80;99.90;;;;;;4850429;29;20575;-92
2022/08/16 10:39:15;;;;;;;15.55;14.18;;;32.90;99.90;;;;;;4849532;29;20036;-93
2022/08/16 10:41:48;;;;;;;15.00;13.68;;;33.00;99.90;;;;;;4850054;29;20121;-93
2022/08/16 10:44:14;;;;;;;15.02;13.68;;;33.30;99.90;;;;;;4851772;29;20034;-93
2022/08/16 10:46:42;;;;;;;15.82;14.30;;;33.40;99.90;;;;;;4849599;29;20027;-92
2022/08/16 10:49:30;;;;;;;14.48;13.25;;;33.40;99.90;;;;;;4852449;29;20377;-91
2022/08/16 10:51:57;;;;;;;15.18;13.88;;;33.50;99.90;;;;;;4849263;29;20065;-93
2022/08/16 10:54:24;;;;;;;16.65;14.90;;;32.90;99.90;;;;;;4848068;29;20026;-92
2022/08/16 10:56:54;;;;;;;15.38;13.40;;;32.80;99.90;;;;;;4847531;29;20067;-92
2022/08/16 10:59:21;;;;;;;14.70;13.45;;;33.20;99.90;;;;;;4846580;29;20033;-92
2022/08/16 11:01:56;;;;;;;15.05;13.40;;;33.60;99.90;;;;;;4847939;29;20030;-92
2022/08/16 11:04:25;;;;;;;14.90;13.65;;;33.80;99.90;;;;;;4846391;29;20029;-91
2022/08/16 11:07:07;;;;;;;14.52;13.30;;;33.90;99.90;;;;;;4847700;29;20120;-95
2022/08/16 11:09:42;;;;;;;15.63;14.05;;;33.40;99.90;;;;;;4848380;29;20105;-93
2022/08/16 11:12:47;;;;;;;14.95;13.95;;;33.60;99.90;;;;;;4848179;29;20042;-92
2022/08/16 11:16:32;;;;;;;15.75;14.23;;;34.00;99.90;;;;;;4999000;24;20910;-92
2022/08/16 11:20:38;;;;;;;;;;;;;;;;;;;;;
2022/08/16 11:24:17;;;;;;;16.58;15.38;;;34.80;99.90;;;;;;4852692;29;20050;-92
2022/08/16 11:33:06;;;;;;;16.15;14.88;;;34.80;99.90;;;;;;5092209;23;20043;-91
2022/08/16 11:35:35;;;;;;;16.80;15.40;;;34.90;99.90;;;;;;4870727;29;20041;-93
2022/08/16 11:38:04;;;;;;;16.17;14.75;;;34.90;99.90;;;;;;4868620;29;20037;-93
2022/08/16 11:41:02;;;;;;;17.92;16.10;;;35.00;99.90;;;;;;4895254;23;20052;-91
2022/08/16 11:43:48;;;;;;;17.08;15.68;;;34.80;99.90;;;;;;4996930;23;20056;-92
2022/08/16 12:10:15;;;;;;;16.30;15.20;;;33.80;99.90;;;;;;4895609;29;20049;-92
2022/08/16 12:19:09;;;;;;;16.85;15.38;;;33.70;99.90;;;;;;5066703;23;20061;-94
2022/08/16 12:24:45;;;;;;;16.85;15.23;;;34.00;99.90;;;;;;5029134;23;20139;-94
2022/08/16 12:27:15;;;;;;;16.10;14.80;;;33.90;99.90;;;;;;4851237;29;20029;-95
2022/08/16 12:29:47;;;;;;;16.02;14.63;;;33.90;99.90;;;;;;4850974;29;20040;-94
2022/08/16 12:32:15;;;;;;;16.23;15.02;;;34.00;99.90;;;;;;4832627;29;20040;-93
2022/08/16 12:34:54;;;;;;;17.33;15.80;;;34.30;99.90;;;;;;4866045;29;20021;-95
2022/08/16 12:37:44;;;;;;;16.73;15.10;;;34.40;99.90;;;;;;4867266;29;20029;-94
2022/08/16 12:54:56;;;;;;;16.30;15.10;;;33.70;99.90;;;;;;4882566;29;20085;-94
2022/08/16 12:57:24;;;;;;;16.30;14.90;;;33.90;99.90;;;;;;4869357;29;20029;-94
2022/08/16 12:59:52;;;;;;;16.10;14.85;;;33.90;99.90;;;;;;4870422;29;20056;-94
2022/08/16 13:02:20;;;;;;;15.93;14.75;;;34.00;99.90;;;;;;4865791;29;20037;-94
2022/08/16 13:04:47;;;;;;;15.60;14.43;;;34.10;99.90;;;;;;4864720;29;20036;-93
2022/08/16 13:07:13;;;;;;;16.92;15.52;;;34.10;99.90;;;;;;4862695;29;20093;-93
2022/08/16 13:09:55;;;;;;;16.83;15.20;;;34.30;99.90;;;;;;4862756;29;20033;-94
2022/08/16 13:12:25;;;;;;;16.63;15.30;;;34.60;99.90;;;;;;4862736;29;20029;-94
2022/08/16 13:14:57;;;;;;;17.05;15.43;;;34.70;99.90;;;;;;4862322;29;20121;-93
2022/08/16 13:17:44;;;;;;;17.13;15.35;;;34.60;99.90;;;;;;4828714;29;20038;-93
2022/08/16 13:20:16;;;;;;;16.80;15.30;;;34.50;99.90;;;;;;4810040;29;20091;-91
2022/08/16 13:22:56;;;;;;;17.13;15.20;;;34.40;99.90;;;;;;4810022;29;20074;-93
2022/08/16 13:25:31;;;;;;;15.88;14.77;;;34.10;99.90;;;;;;4810412;29;20065;-92
2022/08/16 13:28:06;;;;;;;16.45;14.88;;;33.70;99.90;;;;;;4810151;29;20043;-92
2022/08/16 13:30:37;;;;;;;16.83;15.18;;;33.70;99.90;;;;;;4810592;29;20050;-93
2022/08/16 13:33:23;;;;;;;16.27;14.82;;;33.60;99.90;;;;;;4810319;29;20446;-94
2022/08/16 13:35:52;;;;;;;16.60;15.05;;;33.80;99.90;;;;;;4809354;29;20041;-92
2022/08/16 13:38:23;;;;;;;16.40;14.95;;;34.10;99.90;;;;;;4810240;29;20509;-94
2022/08/16 13:40:50;;;;;;;16.75;14.93;;;34.20;99.90;;;;;;4809475;29;20042;-92
2022/08/16 13:43:23;;;;;;;16.85;15.20;;;34.20;99.90;;;;;;4813030;29;20034;-93
2022/08/16 13:46:22;;;;;;;;;;;;;;;;;;;;;
2022/08/16 13:49:50;;;;;;;16.50;14.93;;;34.20;99.90;;;;;;4877794;29;20141;-93
2022/08/16 13:59:12;;;;;;;16.98;15.65;;;34.40;99.90;;;;;;4880465;29;20153;-93
2022/08/16 14:02:00;;;;;;;17.25;15.60;;;34.40;99.90;;;;;;4881677;29;20052;-92
2022/08/16 14:04:30;;;;;;;17.17;15.75;;;34.40;99.90;;;;;;4860515;29;20033;-92
2022/08/16 14:06:57;;;;;;;19.45;14.55;;;34.50;99.90;;;;;;4845919;29;20514;-91
2022/08/16 14:09:25;;;;;;;16.55;15.30;;;34.60;99.90;;;;;;4845990;29;20038;-91
2022/08/16 14:11:53;;;;;;;16.85;15.43;;;34.40;99.90;;;;;;4845684;29;20041;-92
2022/08/16 14:14:21;;;;;;;16.83;15.25;;;34.30;99.90;;;;;;4845849;29;20064;-92
2022/08/16 14:16:47;;;;;;;17.02;15.32;;;34.30;99.90;;;;;;4845967;29;20065;-92
2022/08/16 14:19:17;;;;;;;17.58;16.02;;;34.50;99.90;;;;;;4845928;29;20066;-92
2022/08/16 14:21:47;;;;;;;17.23;15.75;;;34.50;99.90;;;;;;4852803;29;20025;-93
2022/08/16 14:24:14;;;;;;;16.70;15.40;;;34.40;99.90;;;;;;4847430;29;20040;-93
2022/08/16 14:26:44;;;;;;;17.90;16.20;;;34.30;99.90;;;;;;4846388;29;20038;-92
2022/08/16 14:29:10;;;;;;;17.98;16.50;;;34.00;99.90;;;;;;4845555;29;20491;-91
2022/08/16 14:31:37;;;;;;;18.10;16.55;;;34.10;99.90;;;;;;4846639;29;20045;-93
2022/08/16 14:34:05;;;;;;;17.50;15.90;;;34.10;99.90;;;;;;4846806;29;20033;-91
2022/08/16 14:36:32;;;;;;;18.70;16.98;;;34.20;99.90;;;;;;4830625;29;20060;-92
2022/08/16 14:38:59;;;;;;;18.40;16.50;;;34.30;99.90;;;;;;4845496;29;20033;-92
2022/08/16 14:41:27;;;;;;;18.70;16.77;;;34.40;99.90;;;;;;4845492;29;20040;-93
2022/08/16 14:43:54;;;;;;;19.00;16.77;;;34.40;99.90;;;;;;4845664;29;20101;-96
2022/08/16 14:46:20;;;;;;;18.80;16.83;;;34.30;99.90;;;;;;4845195;29;20068;-94
2022/08/16 14:48:46;;;;;;;16.75;15.23;;;34.40;99.90;;;;;;4846711;29;20112;-93
2022/08/16 14:51:14;;;;;;;17.15;15.48;;;34.40;99.90;;;;;;4845920;29;20061;-93
2022/08/16 14:53:42;;;;;;;16.73;15.23;;;34.20;99.90;;;;;;4845635;29;20053;-92
2022/08/16 14:56:09;;;;;;;17.02;15.50;;;34.30;99.90;;;;;;4845715;29;20494;-94
2022/08/16 14:58:38;;;;;;;17.67;15.80;;;34.30;99.90;;;;;;4845484;29;20049;-94
2022/08/16 15:01:16;;;;;;;17.75;16.13;;;34.40;99.90;;;;;;4845411;29;20042;-93
2022/08/16 15:03:45;;;;;;;16.48;14.90;;;34.40;99.90;;;;;;4845286;29;20133;-93
2022/08/16 15:06:12;;;;;;;16.73;15.13;;;34.30;99.90;;;;;;4845713;29;20121;-93
2022/08/16 15:09:16;;;;;;;23.63;16.48;;;33.90;99.90;;;;;;4848624;29;20132;-93
2022/08/16 17:36:37;;;;;;;24.20;13.43;;;27.40;99.90;;;;;;5256151;23;20020;-88
2022/08/16 17:39:06;;;;;;;18.33;10.98;;;27.40;99.90;;;;;;4883272;29;20049;-90
2022/08/16 17:41:33;;;;;;;17.55;11.23;;;27.40;99.90;;;;;;4886816;29;20084;-92
2022/08/16 17:43:59;;;;;;;20.20;10.93;;;27.40;99.90;;;;;;4873133;29;20453;-93
2022/08/16 17:46:25;;;;;;;17.92;9.90;;;27.40;99.90;;;;;;4880394;29;20035;-92
2022/08/16 17:48:52;;;;;;;17.80;9.77;;;27.40;99.90;;;;;;4884546;29;20051;-90
2022/08/16 17:51:19;;;;;;;20.77;10.38;;;27.40;99.90;;;;;;4892335;29;20111;-92
2022/08/16 17:53:46;;;;;;;20.23;10.93;;;27.30;99.90;;;;;;4898625;29;20063;-93
2022/08/16 17:56:15;;;;;;;16.25;11.40;;;27.30;99.90;;;;;;4891563;29;20056;-90
2022/08/16 17:58:43;;;;;;;18.88;10.85;;;27.20;99.90;;;;;;4896091;29;20028;-90
2022/08/16 18:01:09;;;;;;;19.75;11.27;;;27.10;99.90;;;;;;4894786;29;20025;-91
2022/08/16 18:03:39;;;;;;;20.42;11.18;;;27.10;99.90;;;;;;4894454;29;20092;-92
2022/08/16 18:06:11;;;;;;;17.75;11.10;;;27.10;99.90;;;;;;4872283;29;20037;-90
2022/08/16 18:08:38;;;;;;;16.35;10.68;;;27.10;99.90;;;;;;4883323;29;20035;-92
2022/08/16 18:11:05;;;;;;;17.30;10.48;;;27.10;99.90;;;;;;4882876;29;20089;-91
2022/08/16 18:13:32;;;;;;;23.55;11.50;;;27.10;99.90;;;;;;4882934;29;20495;-92
2022/08/16 18:15:58;;;;;;;24.20;13.40;;;27.00;99.90;;;;;;4882715;29;20387;-91
2022/08/16 18:18:28;;;;;;;20.85;11.93;;;26.90;99.90;;;;;;4867401;29;20028;-90
2022/08/16 18:23:39;;;;;;;21.38;11.85;;;26.90;99.90;;;;;;4861934;29;20372;-94
2022/08/16 18:26:06;;;;;;;20.33;11.90;;;27.00;99.90;;;;;;4861416;29;20025;-93
2022/08/16 18:28:34;;;;;;;20.83;12.00;;;26.90;99.90;;;;;;4846187;29;20065;-93
2022/08/16 18:31:01;;;;;;;30.45;13.88;;;27.00;99.90;;;;;;4846131;29;20128;-93
2022/08/16 18:33:28;;;;;;;21.13;13.20;;;27.00;99.90;;;;;;4845694;29;20037;-93
2022/08/16 18:35:55;;;;;;;24.88;12.73;;;27.10;99.90;;;;;;4845655;29;20395;-91
2022/08/16 18:38:21;;;;;;;22.23;12.98;;;27.00;99.90;;;;;;4845746;29;20040;-91
2022/08/16 18:40:49;;;;;;;25.02;12.13;;;27.00;99.90;;;;;;4845546;29;20049;-92
2022/08/16 18:43:17;;;;;;;26.25;12.07;;;27.00;99.90;;;;;;4845762;29;20030;-93
2022/08/16 18:45:46;;;;;;;18.02;11.18;;;27.00;99.90;;;;;;4845585;29;20030;-93
2022/08/16 18:48:14;;;;;;;17.27;11.48;;;27.00;99.90;;;;;;4846299;29;20036;-93
2022/08/16 18:50:42;;;;;;;26.80;11.77;;;26.90;99.90;;;;;;4850013;29;20065;-93
2022/08/16 18:53:11;;;;;;;20.73;11.98;;;26.90;99.90;;;;;;4852916;29;20048;-93
2022/08/16 18:55:38;;;;;;;21.73;12.82;;;26.90;99.90;;;;;;4853051;29;20025;-92
2022/08/16 18:58:05;;;;;;;20.23;11.57;;;26.90;99.90;;;;;;4852653;29;20063;-92
2022/08/16 19:00:37;;;;;;;16.98;11.65;;;26.90;99.90;;;;;;4852192;29;20029;-91
2022/08/16 19:03:05;;;;;;;20.95;12.35;;;26.80;99.90;;;;;;4852081;29;20037;-94
2022/08/16 19:05:35;;;;;;;21.20;12.73;;;26.70;99.90;;;;;;4867138;29;20029;-91
2022/08/16 19:08:03;;;;;;;30.50;14.98;;;26.70;99.90;;;;;;4852138;29;20086;-93
2022/08/16 19:10:34;;;;;;;22.65;12.75;;;26.60;99.90;;;;;;4851945;29;20041;-92
2022/08/16 19:13:06;;;;;;;22.98;12.32;;;26.70;99.90;;;;;;4851945;29;20038;-92
2022/08/16 19:15:33;;;;;;;23.90;12.88;;;26.70;99.90;;;;;;4851674;29;20042;-92
2022/08/16 19:17:59;;;;;;;27.38;14.32;;;26.70;99.90;;;;;;4851265;29;20073;-92
2022/08/16 19:20:27;;;;;;;20.55;12.98;;;26.80;99.90;;;;;;4848063;29;20046;-92
2022/08/16 19:22:57;;;;;;;17.42;12.75;;;26.70;99.90;;;;;;4842762;29;20533;-92
2022/08/16 19:34:21;;;;;;;24.85;14.32;;;26.40;99.90;;;;;;4900636;23;20132;-91
2022/08/16 19:36:48;;;;;;;21.65;14.73;;;26.40;99.90;;;;;;4859775;29;20037;-93
2022/08/16 19:51:43;;;;;;;;;;;;;;;;;;;;;
2022/08/16 20:01:22;;;;;;;26.90;16.42;;;26.50;99.90;;;;;;4872625;29;20082;-93
2022/08/16 20:04:17;;;;;;;34.05;16.05;;;26.50;99.90;;;;;;4866848;29;20052;-92
2022/08/16 20:17:39;;;;;;;25.77;15.80;;;26.40;99.90;;;;;;5504063;23;20157;-93
2022/08/16 20:30:50;;;;;;;28.85;16.77;;;26.50;99.90;;;;;;4904466;23;20106;-93
2022/08/16 21:12:10;;;;;;;26.00;16.88;;;26.40;99.90;;;;;;4899215;29;20084;-92
2022/08/16 21:14:37;;;;;;;25.27;16.95;;;26.40;99.90;;;;;;4884102;29;20032;-92
2022/08/16 21:17:07;;;;;;;27.75;15.80;;;26.30;99.90;;;;;;4882585;29;20037;-94
2022/08/16 21:19:34;;;;;;;28.98;17.52;;;26.30;99.90;;;;;;4850332;29;20112;-93
2022/08/16 21:22:16;;;;;;;24.25;17.95;;;26.30;99.90;;;;;;4849883;29;20057;-91
2022/08/16 21:24:44;;;;;;;29.35;17.67;;;26.30;99.90;;;;;;4849926;29;20068;-91
2022/08/16 21:27:11;;;;;;;32.33;18.83;;;26.20;99.90;;;;;;4849713;29;20474;-92
2022/08/16 21:29:38;;;;;;;30.85;16.70;;;26.20;99.90;;;;;;4849772;29;20081;-90
2022/08/16 21:32:28;;;;;;;29.95;17.40;;;26.30;99.90;;;;;;4849610;29;20073;-92
2022/08/16 21:34:57;;;;;;;21.60;17.02;;;26.20;99.90;;;;;;4849835;29;20025;-92
2022/08/16 21:37:45;;;;;;;28.10;19.52;;;26.20;99.90;;;;;;4867167;29;20032;-92
2022/08/16 21:40:11;;;;;;;28.67;17.45;;;26.20;99.90;;;;;;4883806;29;20406;-93
2022/08/16 21:42:45;;;;;;;24.67;16.67;;;26.20;99.90;;;;;;4868395;29;20145;-93
2022/08/16 21:45:13;;;;;;;31.35;18.38;;;26.20;99.90;;;;;;4868526;29;20040;-93
2022/08/16 21:47:41;;;;;;;27.45;17.83;;;26.20;99.90;;;;;;4868483;29;20025;-93
2022/08/16 21:50:09;;;;;;;26.20;18.13;;;26.20;99.90;;;;;;4883780;29;20045;-93
2022/08/16 21:52:39;;;;;;;26.48;17.58;;;26.20;99.90;;;;;;4868632;29;20175;-93
2022/08/16 21:55:06;;;;;;;27.85;18.77;;;26.20;99.90;;;;;;4884035;29;20037;-92
2022/08/16 21:57:33;;;;;;;25.40;17.42;;;26.20;99.90;;;;;;4868388;29;20076;-94
2022/08/16 21:59:59;;;;;;;22.90;16.85;;;26.10;99.90;;;;;;4867978;29;20056;-92
2022/08/16 22:02:28;;;;;;;29.65;19.15;;;26.10;99.90;;;;;;4868414;29;20029;-93
2022/08/16 22:04:55;;;;;;;29.42;17.85;;;26.10;99.90;;;;;;4883629;29;20040;-94
2022/08/16 22:07:21;;;;;;;33.83;18.13;;;26.00;99.90;;;;;;4872060;29;20393;-92
2022/08/16 22:09:49;;;;;;;31.10;18.52;;;26.00;99.90;;;;;;4885023;29;20075;-92
2022/08/16 22:12:22;;;;;;;26.00;18.33;;;26.10;99.90;;;;;;4867013;29;20119;-92
2022/08/16 22:14:48;;;;;;;31.02;18.50;;;26.10;99.90;;;;;;4882273;29;20033;-91
2022/08/16 22:17:15;;;;;;;27.48;17.13;;;26.10;99.90;;;;;;4882974;29;20035;-92
2022/08/16 22:19:42;;;;;;;33.67;18.33;;;26.00;99.90;;;;;;4867672;29;20035;-92
2022/08/16 22:22:10;;;;;;;26.80;17.83;;;26.00;99.90;;;;;;4868478;29;20085;-91
2022/08/16 22:24:39;;;;;;;34.67;19.15;;;25.90;99.90;;;;;;4882033;29;20037;-94
2022/08/16 22:27:11;;;;;;;34.08;22.23;;;26.00;99.90;;;;;;4867701;29;20025;-93
2022/08/16 22:29:42;;;;;;;32.72;20.20;;;25.90;99.90;;;;;;4867424;29;20036;-92
2022/08/16 22:32:08;;;;;;;22.50;16.67;;;26.00;99.90;;;;;;4866977;29;20116;-92
2022/08/16 22:34:35;;;;;;;25.17;17.83;;;26.00;99.90;;;;;;4867015;29;20064;-92
2022/08/16 22:37:01;;;;;;;24.95;19.27;;;26.00;99.90;;;;;;4866775;29;20028;-91
2022/08/16 22:39:28;;;;;;;30.17;18.17;;;26.00;99.90;;;;;;4866513;29;20108;-93
2022/08/16 22:41:55;;;;;;;26.67;17.50;;;26.00;99.90;;;;;;4866274;29;20035;-92
2022/08/16 22:44:23;;;;;;;31.35;17.92;;;26.00;99.90;;;;;;4866412;29;20029;-92
2022/08/16 22:46:50;;;;;;;22.58;17.80;;;26.00;99.90;;;;;;4866729;29;20041;-92
2022/08/16 22:49:17;;;;;;;25.17;17.77;;;26.00;99.90;;;;;;4879399;29;20029;-94
2022/08/16 22:51:47;;;;;;;25.90;16.73;;;26.00;99.90;;;;;;4866896;29;20450;-95